sensor_id;sensor_type;location;lat;lon;timestamp;pressure;altitude;pressure_sealevel;temperature;humidity
70072;BME280;57434;42.794;23.302;2023-02-08T00:00:13;97261.34;;;-5.66;72.25
70072;BME280;57434;42.794;23.302;2023-02-08T00:01:20;97254.66;;;-5.81;72.19
70072;BME280;57434;42.794;23.302;2023-02-08T00:02:23;97272.84;;;-6.00;72.15
70072;BME280;57434;42.794;23.302;2023-02-08T00:03:24;97279.75;;;-5.91;72.22
70072;BME280;57434;42.794;23.302;2023-02-08T00:04:26;97229.56;;;-5.98;71.75
70072;BME280;57434;42.794;23.302;2023-02-08T00:05:28;97264.66;;;-6.00;71.67
70072;BME280;57434;42.794;23.302;2023-02-08T00:06:30;97261.59;;;-5.71;71.33
70072;BME280;57434;42.794;23.302;2023-02-08T00:07:32;97263.19;;;-5.70;70.92
70072;BME280;57434;42.794;23.302;2023-02-08T00:08:34;97220.88;;;-5.88;70.78
70072;BME280;57434;42.794;23.302;2023-02-08T00:09:36;97264.16;;;-5.62;70.32
70072;BME280;57434;42.794;23.302;2023-02-08T00:10:38;97276.41;;;-5.72;70.42
70072;BME280;57434;42.794;23.302;2023-02-08T00:11:40;97258.97;;;-5.67;70.03
70072;BME280;57434;42.794;23.302;2023-02-08T00:12:42;97250.03;;;-5.92;70.02
70072;BME280;57434;42.794;23.302;2023-02-08T00:13:44;97229.63;;;-6.23;70.30
70072;BME280;57434;42.794;23.302;2023-02-08T00:14:46;97254.41;;;-6.16;70.58
70072;BME280;57434;42.794;23.302;2023-02-08T00:15:48;97284.84;;;-5.77;70.30
70072;BME280;57434;42.794;23.302;2023-02-08T00:16:52;97281.66;;;-5.79;70.11
70072;BME280;57434;42.794;23.302;2023-02-08T00:17:54;97292.38;;;-5.86;70.21
70072;BME280;57434;42.794;23.302;2023-02-08T00:18:56;97237.44;;;-6.09;70.51
70072;BME280;57434;42.794;23.302;2023-02-08T00:19:57;97273.81;;;-5.81;70.14
70072;BME280;57434;42.794;23.302;2023-02-08T00:20:59;97230.16;;;-6.05;69.77
70072;BME280;57434;42.794;23.302;2023-02-08T00:22:01;97100.72;;;-7.21;70.20
70072;BME280;57434;42.794;23.302;2023-02-08T00:23:03;97274.91;;;-6.09;70.74
70072;BME280;57434;42.794;23.302;2023-02-08T00:24:05;97237.06;;;-6.48;70.76
70072;BME280;57434;42.794;23.302;2023-02-08T00:25:07;97241.47;;;-6.43;70.43
70072;BME280;57434;42.794;23.302;2023-02-08T00:26:09;97271.53;;;-6.31;69.85
70072;BME280;57434;42.794;23.302;2023-02-08T00:27:11;97077.97;;;-7.73;70.37
70072;BME280;57434;42.794;23.302;2023-02-08T00:28:14;97148.31;;;-7.42;71.06
70072;BME280;57434;42.794;23.302;2023-02-08T00:29:17;97295.31;;;-6.68;71.62
70072;BME280;57434;42.794;23.302;2023-02-08T00:30:18;97290.75;;;-6.64;71.69
70072;BME280;57434;42.794;23.302;2023-02-08T00:31:20;97300.19;;;-6.73;71.86
70072;BME280;57434;42.794;23.302;2023-02-08T00:32:23;97319.28;;;-6.73;71.65
70072;BME280;57434;42.794;23.302;2023-02-08T00:33:25;97147.22;;;-7.74;71.61
70072;BME280;57434;42.794;23.302;2023-02-08T00:34:26;97292.69;;;-6.89;72.02
70072;BME280;57434;42.794;23.302;2023-02-08T00:35:28;97264.91;;;-7.15;72.43
70072;BME280;57434;42.794;23.302;2023-02-08T00:36:30;97302.69;;;-7.05;72.22
70072;BME280;57434;42.794;23.302;2023-02-08T00:37:32;97294.63;;;-6.89;72.22
70072;BME280;57434;42.794;23.302;2023-02-08T00:38:34;97298.50;;;-6.90;72.24
70072;BME280;57434;42.794;23.302;2023-02-08T00:39:36;97265.97;;;-7.07;72.41
70072;BME280;57434;42.794;23.302;2023-02-08T00:40:38;97300.88;;;-6.76;72.15
70072;BME280;57434;42.794;23.302;2023-02-08T00:41:40;97333.50;;;-6.68;71.59
70072;BME280;57434;42.794;23.302;2023-02-08T00:42:42;97340.59;;;-6.55;71.18
70072;BME280;57434;42.794;23.302;2023-02-08T00:43:44;97165.13;;;-7.40;70.99
70072;BME280;57434;42.794;23.302;2023-02-08T00:44:46;97324.06;;;-6.70;70.91
70072;BME280;57434;42.794;23.302;2023-02-08T00:45:53;97309.63;;;-6.71;71.21
70072;BME280;57434;42.794;23.302;2023-02-08T00:46:55;97240.13;;;-7.34;71.25
70072;BME280;57434;42.794;23.302;2023-02-08T00:47:57;97307.03;;;-6.80;71.30
70072;BME280;57434;42.794;23.302;2023-02-08T00:48:58;97278.59;;;-7.03;71.16
70072;BME280;57434;42.794;23.302;2023-02-08T00:50:00;97310.28;;;-6.74;71.60
70072;BME280;57434;42.794;23.302;2023-02-08T00:51:09;97310.19;;;-6.65;71.03
70072;BME280;57434;42.794;23.302;2023-02-08T00:52:11;97310.69;;;-6.51;70.69
70072;BME280;57434;42.794;23.302;2023-02-08T00:53:12;97293.84;;;-6.53;70.08
70072;BME280;57434;42.794;23.302;2023-02-08T00:54:16;97318.75;;;-6.42;70.03
70072;BME280;57434;42.794;23.302;2023-02-08T00:55:18;97315.91;;;-6.34;68.84
70072;BME280;57434;42.794;23.302;2023-02-08T00:56:20;97316.81;;;-6.30;68.61
70072;BME280;57434;42.794;23.302;2023-02-08T00:57:22;97316.13;;;-6.51;69.06
70072;BME280;57434;42.794;23.302;2023-02-08T00:58:23;97285.84;;;-6.95;69.72
70072;BME280;57434;42.794;23.302;2023-02-08T00:59:25;97265.41;;;-6.89;69.31
70072;BME280;57434;42.794;23.302;2023-02-08T01:00:27;97323.28;;;-6.47;69.42
70072;BME280;57434;42.794;23.302;2023-02-08T01:01:29;97317.28;;;-6.52;69.67
70072;BME280;57434;42.794;23.302;2023-02-08T01:02:31;97306.81;;;-6.50;69.06
70072;BME280;57434;42.794;23.302;2023-02-08T01:03:37;97318.41;;;-6.29;68.33
70072;BME280;57434;42.794;23.302;2023-02-08T01:04:39;97065.59;;;-7.71;68.16
70072;BME280;57434;42.794;23.302;2023-02-08T01:05:41;97281.53;;;-6.35;67.68
70072;BME280;57434;42.794;23.302;2023-02-08T01:06:43;97300.66;;;-6.23;67.26
70072;BME280;57434;42.794;23.302;2023-02-08T01:07:44;97298.03;;;-6.31;67.38
70072;BME280;57434;42.794;23.302;2023-02-08T01:08:47;97321.91;;;-6.16;67.14
70072;BME280;57434;42.794;23.302;2023-02-08T01:09:49;97330.59;;;-6.26;67.68
70072;BME280;57434;42.794;23.302;2023-02-08T01:10:50;97329.34;;;-6.29;68.00
70072;BME280;57434;42.794;23.302;2023-02-08T01:11:52;97349.34;;;-6.37;67.71
70072;BME280;57434;42.794;23.302;2023-02-08T01:12:54;97262.44;;;-6.71;68.15
70072;BME280;57434;42.794;23.302;2023-02-08T01:13:56;97122.72;;;-7.50;67.96
70072;BME280;57434;42.794;23.302;2023-02-08T01:14:58;97313.41;;;-6.27;68.10
70072;BME280;57434;42.794;23.302;2023-02-08T01:16:10;97310.34;;;-6.25;67.23
70072;BME280;57434;42.794;23.302;2023-02-08T01:17:12;97295.09;;;-6.75;68.07
70072;BME280;57434;42.794;23.302;2023-02-08T01:18:14;97327.19;;;-6.23;67.68
70072;BME280;57434;42.794;23.302;2023-02-08T01:19:16;97340.81;;;-6.35;67.78
70072;BME280;57434;42.794;23.302;2023-02-08T01:20:18;97330.69;;;-6.35;68.04
70072;BME280;57434;42.794;23.302;2023-02-08T01:21:24;97044.94;;;-8.41;69.32
70072;BME280;57434;42.794;23.302;2023-02-08T01:22:28;97256.94;;;-7.32;69.82
70072;BME280;57434;42.794;23.302;2023-02-08T01:23:29;97333.72;;;-6.73;69.98
70072;BME280;57434;42.794;23.302;2023-02-08T01:24:31;97332.25;;;-6.70;69.79
70072;BME280;57434;42.794;23.302;2023-02-08T01:25:33;97323.59;;;-6.72;70.14
70072;BME280;57434;42.794;23.302;2023-02-08T01:26:35;97337.06;;;-6.55;70.01
70072;BME280;57434;42.794;23.302;2023-02-08T01:27:37;97321.34;;;-6.46;69.63
70072;BME280;57434;42.794;23.302;2023-02-08T01:28:40;97347.53;;;-6.33;69.46
70072;BME280;57434;42.794;23.302;2023-02-08T01:29:42;97253.91;;;-6.82;69.04
70072;BME280;57434;42.794;23.302;2023-02-08T01:30:43;97292.81;;;-6.36;68.77
70072;BME280;57434;42.794;23.302;2023-02-08T01:31:45;97317.72;;;-6.26;69.06
70072;BME280;57434;42.794;23.302;2023-02-08T01:32:47;97288.13;;;-6.36;69.07
70072;BME280;57434;42.794;23.302;2023-02-08T01:33:49;97117.63;;;-7.52;69.36
70072;BME280;57434;42.794;23.302;2023-02-08T01:34:51;97276.31;;;-6.52;69.53
70072;BME280;57434;42.794;23.302;2023-02-08T01:35:53;97304.88;;;-6.37;69.73
70072;BME280;57434;42.794;23.302;2023-02-08T01:36:54;97267.31;;;-6.65;70.10
70072;BME280;57434;42.794;23.302;2023-02-08T01:37:57;97311.91;;;-6.36;70.43
70072;BME280;57434;42.794;23.302;2023-02-08T01:38:59;97292.81;;;-6.49;70.50
70072;BME280;57434;42.794;23.302;2023-02-08T01:40:01;97316.25;;;-6.23;70.81
70072;BME280;57434;42.794;23.302;2023-02-08T01:41:04;97314.97;;;-6.14;70.34
70072;BME280;57434;42.794;23.302;2023-02-08T01:42:12;97318.06;;;-6.27;70.32
70072;BME280;57434;42.794;23.302;2023-02-08T01:43:21;97172.75;;;-7.22;70.76
70072;BME280;57434;42.794;23.302;2023-02-08T01:46:03;97298.38;;;-6.33;70.71
70072;BME280;57434;42.794;23.302;2023-02-08T01:47:05;97319.31;;;-6.25;70.78
70072;BME280;57434;42.794;23.302;2023-02-08T01:48:11;97320.69;;;-6.31;70.95
70072;BME280;57434;42.794;23.302;2023-02-08T01:50:23;97286.09;;;-6.63;71.34
70072;BME280;57434;42.794;23.302;2023-02-08T01:51:31;97296.34;;;-6.48;71.15
70072;BME280;57434;42.794;23.302;2023-02-08T01:52:33;97321.81;;;-6.44;71.13
70072;BME280;57434;42.794;23.302;2023-02-08T01:53:36;97318.63;;;-6.46;71.39
70072;BME280;57434;42.794;23.302;2023-02-08T01:54:55;97291.44;;;-6.79;71.38
70072;BME280;57434;42.794;23.302;2023-02-08T01:56:04;97252.13;;;-7.02;71.91
70072;BME280;57434;42.794;23.302;2023-02-08T01:57:07;97318.97;;;-6.60;71.70
70072;BME280;57434;42.794;23.302;2023-02-08T01:58:10;97321.47;;;-6.55;71.20
70072;BME280;57434;42.794;23.302;2023-02-08T01:59:20;97272.22;;;-6.83;70.77
70072;BME280;57434;42.794;23.302;2023-02-08T02:00:24;97268.53;;;-7.23;70.97
70072;BME280;57434;42.794;23.302;2023-02-08T02:03:23;97324.19;;;-6.67;71.74
70072;BME280;57434;42.794;23.302;2023-02-08T02:04:25;97011.94;;;-8.73;71.31
70072;BME280;57434;42.794;23.302;2023-02-08T02:05:33;97326.78;;;-6.70;71.36
70072;BME280;57434;42.794;23.302;2023-02-08T02:06:39;97310.31;;;-6.86;71.72
70072;BME280;57434;42.794;23.302;2023-02-08T02:07:44;97333.84;;;-6.69;71.41
70072;BME280;57434;42.794;23.302;2023-02-08T02:10:13;97318.38;;;-6.90;71.64
70072;BME280;57434;42.794;23.302;2023-02-08T02:11:16;97281.53;;;-6.96;71.10
70072;BME280;57434;42.794;23.302;2023-02-08T02:12:19;97340.38;;;-6.50;70.56
70072;BME280;57434;42.794;23.302;2023-02-08T02:13:24;97323.38;;;-6.67;70.28
70072;BME280;57434;42.794;23.302;2023-02-08T02:14:27;97171.94;;;-7.46;70.16
70072;BME280;57434;42.794;23.302;2023-02-08T02:15:29;97281.66;;;-6.80;70.07
70072;BME280;57434;42.794;23.302;2023-02-08T02:16:31;97359.72;;;-6.30;70.10
70072;BME280;57434;42.794;23.302;2023-02-08T02:17:34;97346.63;;;-6.25;69.74
70072;BME280;57434;42.794;23.302;2023-02-08T02:18:36;97306.69;;;-6.54;69.72
70072;BME280;57434;42.794;23.302;2023-02-08T02:24:53;97331.03;;;-6.36;70.06
70072;BME280;57434;42.794;23.302;2023-02-08T02:25:51;97358.91;;;-6.31;69.37
70072;BME280;57434;42.794;23.302;2023-02-08T02:28:13;97157.50;;;-7.59;70.24
70072;BME280;57434;42.794;23.302;2023-02-08T02:30:33;97327.53;;;-6.49;70.96
70072;BME280;57434;42.794;23.302;2023-02-08T02:32:54;97389.41;;;-6.29;69.91
70072;BME280;57434;42.794;23.302;2023-02-08T02:34:08;97405.81;;;-6.29;69.81
70072;BME280;57434;42.794;23.302;2023-02-08T02:37:38;97366.78;;;-6.05;69.50
70072;BME280;57434;42.794;23.302;2023-02-08T02:40:48;97367.44;;;-6.08;69.53
70072;BME280;57434;42.794;23.302;2023-02-08T02:42:16;97358.47;;;-6.08;69.52
70072;BME280;57434;42.794;23.302;2023-02-08T02:43:28;97360.50;;;-6.30;69.95
70072;BME280;57434;42.794;23.302;2023-02-08T02:50:15;97199.78;;;-7.41;70.40
70072;BME280;57434;42.794;23.302;2023-02-08T02:52:51;97368.94;;;-6.23;70.10
70072;BME280;57434;42.794;23.302;2023-02-08T02:54:15;97348.31;;;-6.45;69.97
70072;BME280;57434;42.794;23.302;2023-02-08T02:55:21;97366.41;;;-6.16;69.89
70072;BME280;57434;42.794;23.302;2023-02-08T02:56:34;97362.78;;;-6.32;69.92
70072;BME280;57434;42.794;23.302;2023-02-08T02:57:36;97375.09;;;-6.26;70.49
70072;BME280;57434;42.794;23.302;2023-02-08T02:58:41;97378.16;;;-6.27;70.63
70072;BME280;57434;42.794;23.302;2023-02-08T02:59:44;97380.09;;;-6.16;70.47
70072;BME280;57434;42.794;23.302;2023-02-08T03:00:52;97370.88;;;-6.11;69.89
70072;BME280;57434;42.794;23.302;2023-02-08T03:01:54;97359.38;;;-6.17;69.76
70072;BME280;57434;42.794;23.302;2023-02-08T03:02:56;97339.81;;;-6.31;69.89
70072;BME280;57434;42.794;23.302;2023-02-08T03:03:58;97379.28;;;-5.92;69.07
70072;BME280;57434;42.794;23.302;2023-02-08T03:05:00;97369.16;;;-6.03;69.20
70072;BME280;57434;42.794;23.302;2023-02-08T03:06:09;97384.41;;;-5.90;68.77
70072;BME280;57434;42.794;23.302;2023-02-08T03:11:18;97350.50;;;-6.38;68.36
70072;BME280;57434;42.794;23.302;2023-02-08T03:17:33;97361.53;;;-6.10;68.78
70072;BME280;57434;42.794;23.302;2023-02-08T03:19:08;97373.25;;;-5.97;68.70
70072;BME280;57434;42.794;23.302;2023-02-08T03:20:24;97386.81;;;-6.13;68.97
70072;BME280;57434;42.794;23.302;2023-02-08T03:23:01;97219.22;;;-7.18;68.96
70072;BME280;57434;42.794;23.302;2023-02-08T03:25:20;97376.88;;;-6.42;70.63
70072;BME280;57434;42.794;23.302;2023-02-08T03:26:45;97216.09;;;-7.53;71.04
70072;BME280;57434;42.794;23.302;2023-02-08T03:27:59;97364.13;;;-6.62;71.27
70072;BME280;57434;42.794;23.302;2023-02-08T03:29:10;97338.16;;;-6.81;70.94
70072;BME280;57434;42.794;23.302;2023-02-08T03:31:52;97382.34;;;-6.54;71.20
70072;BME280;57434;42.794;23.302;2023-02-08T03:33:03;97388.13;;;-6.43;70.96
70072;BME280;57434;42.794;23.302;2023-02-08T03:34:18;97364.53;;;-6.72;71.00
70072;BME280;57434;42.794;23.302;2023-02-08T03:35:49;97382.34;;;-6.42;71.05
70072;BME280;57434;42.794;23.302;2023-02-08T03:37:02;97327.94;;;-6.84;70.60
70072;BME280;57434;42.794;23.302;2023-02-08T03:38:13;97396.34;;;-6.43;70.69
70072;BME280;57434;42.794;23.302;2023-02-08T03:39:21;97166.81;;;-7.60;70.29
70072;BME280;57434;42.794;23.302;2023-02-08T03:40:42;97365.84;;;-6.33;70.32
70072;BME280;57434;42.794;23.302;2023-02-08T03:41:48;97349.34;;;-6.37;70.44
70072;BME280;57434;42.794;23.302;2023-02-08T03:42:53;97398.97;;;-6.35;70.32
70072;BME280;57434;42.794;23.302;2023-02-08T03:44:01;97339.09;;;-6.40;70.21
70072;BME280;57434;42.794;23.302;2023-02-08T03:45:15;97402.88;;;-5.99;69.97
70072;BME280;57434;42.794;23.302;2023-02-08T03:46:25;97223.56;;;-7.05;69.83
70072;BME280;57434;42.794;23.302;2023-02-08T03:47:34;97381.47;;;-5.97;69.67
70072;BME280;57434;42.794;23.302;2023-02-08T03:48:40;97343.91;;;-6.49;70.27
70072;BME280;57434;42.794;23.302;2023-02-08T03:49:45;97388.88;;;-6.22;70.69
70072;BME280;57434;42.794;23.302;2023-02-08T03:50:52;97221.59;;;-7.29;70.52
70072;BME280;57434;42.794;23.302;2023-02-08T03:51:58;97376.00;;;-6.22;70.98
70072;BME280;57434;42.794;23.302;2023-02-08T03:53:02;97388.25;;;-6.40;71.43
70072;BME280;57434;42.794;23.302;2023-02-08T03:54:07;97236.06;;;-7.16;71.47
70072;BME280;57434;42.794;23.302;2023-02-08T03:55:15;97250.28;;;-6.98;71.48
70072;BME280;57434;42.794;23.302;2023-02-08T03:56:45;97376.22;;;-6.02;71.20
70072;BME280;57434;42.794;23.302;2023-02-08T03:58:39;97374.25;;;-5.90;71.04
70072;BME280;57434;42.794;23.302;2023-02-08T03:59:22;97382.38;;;-5.93;70.70
70072;BME280;57434;42.794;23.302;2023-02-08T04:00:26;97384.50;;;-5.74;70.48
70072;BME280;57434;42.794;23.302;2023-02-08T04:01:56;97381.78;;;-5.74;70.04
70072;BME280;57434;42.794;23.302;2023-02-08T04:03:00;97376.22;;;-6.02;70.10
70072;BME280;57434;42.794;23.302;2023-02-08T04:04:03;97403.31;;;-6.09;70.76
70072;BME280;57434;42.794;23.302;2023-02-08T04:05:06;97395.91;;;-6.09;70.75
70072;BME280;57434;42.794;23.302;2023-02-08T04:06:08;97394.22;;;-6.26;71.19
70072;BME280;57434;42.794;23.302;2023-02-08T04:07:10;97391.34;;;-6.29;71.45
70072;BME280;57434;42.794;23.302;2023-02-08T04:08:12;97394.31;;;-6.22;71.31
70072;BME280;57434;42.794;23.302;2023-02-08T04:09:14;97392.13;;;-6.41;71.48
70072;BME280;57434;42.794;23.302;2023-02-08T04:10:15;97278.34;;;-6.98;71.37
70072;BME280;57434;42.794;23.302;2023-02-08T04:11:17;97375.53;;;-6.36;71.29
70072;BME280;57434;42.794;23.302;2023-02-08T04:12:19;97291.53;;;-6.88;71.16
70072;BME280;57434;42.794;23.302;2023-02-08T04:13:21;97374.81;;;-6.45;71.14
70072;BME280;57434;42.794;23.302;2023-02-08T04:14:22;97400.59;;;-6.22;70.98
70072;BME280;57434;42.794;23.302;2023-02-08T04:15:24;97345.50;;;-6.48;70.44
70072;BME280;57434;42.794;23.302;2023-02-08T04:16:26;97394.41;;;-6.19;70.29
70072;BME280;57434;42.794;23.302;2023-02-08T04:17:28;97345.56;;;-6.81;70.44
70072;BME280;57434;42.794;23.302;2023-02-08T04:18:29;97405.78;;;-6.53;70.74
70072;BME280;57434;42.794;23.302;2023-02-08T04:19:31;97394.75;;;-6.57;71.30
70072;BME280;57434;42.794;23.302;2023-02-08T04:20:33;97353.16;;;-6.87;71.33
70072;BME280;57434;42.794;23.302;2023-02-08T04:21:35;97366.69;;;-7.02;71.83
70072;BME280;57434;42.794;23.302;2023-02-08T04:22:37;97396.59;;;-6.94;71.71
70072;BME280;57434;42.794;23.302;2023-02-08T04:23:38;97398.09;;;-6.84;71.93
70072;BME280;57434;42.794;23.302;2023-02-08T04:24:40;97392.63;;;-6.84;72.19
70072;BME280;57434;42.794;23.302;2023-02-08T04:25:42;97397.31;;;-6.72;71.78
70072;BME280;57434;42.794;23.302;2023-02-08T04:26:44;97402.59;;;-6.55;71.12
70072;BME280;57434;42.794;23.302;2023-02-08T04:27:45;97210.34;;;-7.72;70.94
70072;BME280;57434;42.794;23.302;2023-02-08T04:28:47;97353.50;;;-6.88;70.79
70072;BME280;57434;42.794;23.302;2023-02-08T04:29:49;97412.84;;;-6.52;70.60
70072;BME280;57434;42.794;23.302;2023-02-08T04:30:53;97391.00;;;-6.52;70.26
70072;BME280;57434;42.794;23.302;2023-02-08T04:31:56;97397.00;;;-6.47;70.18
70072;BME280;57434;42.794;23.302;2023-02-08T04:32:57;97392.59;;;-6.39;69.87
70072;BME280;57434;42.794;23.302;2023-02-08T04:33:59;97379.81;;;-6.59;70.24
70072;BME280;57434;42.794;23.302;2023-02-08T04:35:01;97376.97;;;-6.63;70.33
70072;BME280;57434;42.794;23.302;2023-02-08T04:36:03;97373.31;;;-6.67;70.31
70072;BME280;57434;42.794;23.302;2023-02-08T04:37:06;97371.59;;;-6.84;70.62
70072;BME280;57434;42.794;23.302;2023-02-08T04:38:08;97396.41;;;-6.76;70.90
70072;BME280;57434;42.794;23.302;2023-02-08T04:39:10;97378.53;;;-6.86;70.94
70072;BME280;57434;42.794;23.302;2023-02-08T04:40:12;97398.09;;;-6.72;71.18
70072;BME280;57434;42.794;23.302;2023-02-08T04:41:13;97400.81;;;-6.72;70.78
70072;BME280;57434;42.794;23.302;2023-02-08T04:42:15;97365.00;;;-6.83;70.78
70072;BME280;57434;42.794;23.302;2023-02-08T04:43:17;97325.00;;;-7.24;70.30
70072;BME280;57434;42.794;23.302;2023-02-08T04:44:19;97389.75;;;-6.88;70.99
70072;BME280;57434;42.794;23.302;2023-02-08T04:45:20;97381.03;;;-6.93;70.84
70072;BME280;57434;42.794;23.302;2023-02-08T04:46:22;97401.59;;;-6.84;70.68
70072;BME280;57434;42.794;23.302;2023-02-08T04:47:24;97410.03;;;-6.89;70.51
70072;BME280;57434;42.794;23.302;2023-02-08T04:48:26;97403.78;;;-6.89;70.71
70072;BME280;57434;42.794;23.302;2023-02-08T04:49:28;97398.53;;;-6.94;70.55
70072;BME280;57434;42.794;23.302;2023-02-08T04:50:29;97382.91;;;-7.39;70.95
70072;BME280;57434;42.794;23.302;2023-02-08T04:51:31;97392.16;;;-7.31;71.13
70072;BME280;57434;42.794;23.302;2023-02-08T04:52:33;97408.50;;;-7.31;71.51
70072;BME280;57434;42.794;23.302;2023-02-08T04:53:35;97404.56;;;-7.42;71.86
70072;BME280;57434;42.794;23.302;2023-02-08T04:54:37;97239.69;;;-8.53;71.96
70072;BME280;57434;42.794;23.302;2023-02-08T04:55:41;97407.63;;;-7.44;71.93
70072;BME280;57434;42.794;23.302;2023-02-08T04:56:43;97424.31;;;-7.45;72.17
70072;BME280;57434;42.794;23.302;2023-02-08T04:57:44;97427.38;;;-7.68;72.45
70072;BME280;57434;42.794;23.302;2023-02-08T04:58:46;97427.38;;;-7.68;73.09
70072;BME280;57434;42.794;23.302;2023-02-08T04:59:48;97370.00;;;-7.92;73.45
70072;BME280;57434;42.794;23.302;2023-02-08T05:00:50;97430.16;;;-7.56;73.44
70072;BME280;57434;42.794;23.302;2023-02-08T05:01:51;97431.38;;;-7.44;73.15
70072;BME280;57434;42.794;23.302;2023-02-08T05:02:54;97381.56;;;-7.54;72.39
70072;BME280;57434;42.794;23.302;2023-02-08T05:03:56;97341.69;;;-7.79;71.99
70072;BME280;57434;42.794;23.302;2023-02-08T05:04:58;97398.84;;;-7.50;71.61
70072;BME280;57434;42.794;23.302;2023-02-08T05:06:00;97444.94;;;-7.15;71.38
70072;BME280;57434;42.794;23.302;2023-02-08T05:07:02;97407.56;;;-7.35;71.07
70072;BME280;57434;42.794;23.302;2023-02-08T05:08:04;97454.53;;;-7.09;70.65
70072;BME280;57434;42.794;23.302;2023-02-08T05:09:07;97394.84;;;-7.52;70.26
70072;BME280;57434;42.794;23.302;2023-02-08T05:10:09;97443.34;;;-7.16;69.43
70072;BME280;57434;42.794;23.302;2023-02-08T05:11:11;97452.50;;;-7.00;69.46
70072;BME280;57434;42.794;23.302;2023-02-08T05:12:13;97247.81;;;-8.44;69.97
70072;BME280;57434;42.794;23.302;2023-02-08T05:13:15;97415.47;;;-7.42;69.85
70072;BME280;57434;42.794;23.302;2023-02-08T05:14:17;97449.56;;;-6.95;69.56
70072;BME280;57434;42.794;23.302;2023-02-08T05:15:18;97465.84;;;-6.86;69.72
70072;BME280;57434;42.794;23.302;2023-02-08T05:16:20;97435.63;;;-7.14;69.57
70072;BME280;57434;42.794;23.302;2023-02-08T05:17:22;97366.34;;;-7.34;69.36
70072;BME280;57434;42.794;23.302;2023-02-08T05:18:24;97316.97;;;-7.74;68.83
70072;BME280;57434;42.794;23.302;2023-02-08T05:19:26;97469.44;;;-6.61;68.22
70072;BME280;57434;42.794;23.302;2023-02-08T05:20:28;97439.31;;;-6.98;68.60
70072;BME280;57434;42.794;23.302;2023-02-08T05:21:30;97453.28;;;-6.99;68.57
70072;BME280;57434;42.794;23.302;2023-02-08T05:22:32;97455.22;;;-7.00;68.63
70072;BME280;57434;42.794;23.302;2023-02-08T05:23:34;97433.38;;;-7.12;68.64
70072;BME280;57434;42.794;23.302;2023-02-08T05:24:36;97470.09;;;-7.09;69.10
70072;BME280;57434;42.794;23.302;2023-02-08T05:25:38;97469.34;;;-6.98;69.00
70072;BME280;57434;42.794;23.302;2023-02-08T05:26:40;97469.56;;;-7.03;68.74
70072;BME280;57434;42.794;23.302;2023-02-08T05:27:42;97461.56;;;-7.29;68.65
70072;BME280;57434;42.794;23.302;2023-02-08T05:28:44;97470.47;;;-7.20;68.54
70072;BME280;57434;42.794;23.302;2023-02-08T05:29:45;97457.03;;;-7.04;68.09
70072;BME280;57434;42.794;23.302;2023-02-08T05:30:48;97374.66;;;-7.72;68.06
70072;BME280;57434;42.794;23.302;2023-02-08T05:31:50;97446.34;;;-7.30;68.59
70072;BME280;57434;42.794;23.302;2023-02-08T05:32:52;97421.88;;;-7.38;68.22
70072;BME280;57434;42.794;23.302;2023-02-08T05:33:53;97473.22;;;-7.20;68.24
70072;BME280;57434;42.794;23.302;2023-02-08T05:34:55;97401.72;;;-7.46;67.87
70072;BME280;57434;42.794;23.302;2023-02-08T05:35:57;97469.66;;;-6.99;67.99
70072;BME280;57434;42.794;23.302;2023-02-08T05:36:58;97475.25;;;-6.96;68.13
70072;BME280;57434;42.794;23.302;2023-02-08T05:38:00;97473.88;;;-7.02;67.91
70072;BME280;57434;42.794;23.302;2023-02-08T05:39:03;97476.81;;;-7.07;68.20
70072;BME280;57434;42.794;23.302;2023-02-08T05:40:05;97485.00;;;-7.07;68.29
70072;BME280;57434;42.794;23.302;2023-02-08T05:41:07;97475.59;;;-7.18;68.03
70072;BME280;57434;42.794;23.302;2023-02-08T05:42:09;97475.47;;;-7.22;68.39
70072;BME280;57434;42.794;23.302;2023-02-08T05:43:11;97482.84;;;-7.43;68.98
70072;BME280;57434;42.794;23.302;2023-02-08T05:44:12;97447.28;;;-7.76;69.36
70072;BME280;57434;42.794;23.302;2023-02-08T05:45:14;97476.56;;;-7.64;70.24
70072;BME280;57434;42.794;23.302;2023-02-08T05:46:16;97491.72;;;-7.55;70.44
70072;BME280;57434;42.794;23.302;2023-02-08T05:47:18;97435.66;;;-7.85;70.28
70072;BME280;57434;42.794;23.302;2023-02-08T05:48:20;97479.47;;;-7.40;69.77
70072;BME280;57434;42.794;23.302;2023-02-08T05:49:22;97486.03;;;-7.20;69.63
70072;BME280;57434;42.794;23.302;2023-02-08T05:50:24;97479.72;;;-7.12;69.21
70072;BME280;57434;42.794;23.302;2023-02-08T05:51:25;97488.56;;;-6.94;69.42
70072;BME280;57434;42.794;23.302;2023-02-08T05:52:27;97490.97;;;-6.93;69.34
70072;BME280;57434;42.794;23.302;2023-02-08T05:53:29;97407.00;;;-7.29;69.45
70072;BME280;57434;42.794;23.302;2023-02-08T05:54:31;97403.94;;;-7.06;68.76
70072;BME280;57434;42.794;23.302;2023-02-08T05:55:33;97469.06;;;-6.39;68.93
70072;BME280;57434;42.794;23.302;2023-02-08T05:56:35;97478.81;;;-6.05;68.31
70072;BME280;57434;42.794;23.302;2023-02-08T05:57:36;97487.03;;;-5.93;67.63
70072;BME280;57434;42.794;23.302;2023-02-08T05:58:38;97477.00;;;-5.52;66.82
70072;BME280;57434;42.794;23.302;2023-02-08T05:59:40;97484.16;;;-5.48;66.12
70072;BME280;57434;42.794;23.302;2023-02-08T06:00:42;97479.50;;;-5.84;66.66
70072;BME280;57434;42.794;23.302;2023-02-08T06:01:44;97450.19;;;-6.32;67.14
70072;BME280;57434;42.794;23.302;2023-02-08T06:02:46;97477.75;;;-6.25;68.20
70072;BME280;57434;42.794;23.302;2023-02-08T06:03:47;97453.81;;;-6.40;68.40
70072;BME280;57434;42.794;23.302;2023-02-08T06:04:49;97467.78;;;-5.72;67.62
70072;BME280;57434;42.794;23.302;2023-02-08T06:05:51;97488.41;;;-5.10;66.22
70072;BME280;57434;42.794;23.302;2023-02-08T06:06:53;97473.53;;;-5.13;65.86
70072;BME280;57434;42.794;23.302;2023-02-08T06:07:55;97326.59;;;-6.29;65.64
70072;BME280;57434;42.794;23.302;2023-02-08T06:08:57;97383.13;;;-6.41;65.96
70072;BME280;57434;42.794;23.302;2023-02-08T06:09:58;97482.56;;;-5.97;66.91
70072;BME280;57434;42.794;23.302;2023-02-08T06:11:00;97496.53;;;-6.23;67.79
70072;BME280;57434;42.794;23.302;2023-02-08T06:12:03;97474.16;;;-6.50;68.33
70072;BME280;57434;42.794;23.302;2023-02-08T06:13:04;97459.19;;;-6.76;68.74
70072;BME280;57434;42.794;23.302;2023-02-08T06:14:06;97502.72;;;-6.47;68.58